Time;durP1;ratioP1;P1;durP2;ratioP2;P2;SDS_P1;SDS_P2;PMS_P1;PMS_P2;Temp;Humidity;BMP_temperature;BMP_pressure;BME280_temperature;BME280_humidity;BME280_pressure;Samples;Min_cycle;Max_cycle;Signal;HPM_P1;HPM_P2
2022/02/22 00:00:53;;;;;;;0.00;0.00;;;;;22.50;100509.00;;;;5018094;28;20048;-77
2022/02/22 00:03:25;;;;;;;0.00;0.00;;;;;22.50;100480.00;;;;5016057;28;20109;-77
2022/02/22 00:05:55;;;;;;;0.38;0.38;;;;;22.50;100477.00;;;;5016538;28;20037;-76
2022/02/22 00:08:24;;;;;;;0.28;0.28;;;;;22.60;100498.00;;;;5015248;28;20037;-76
2022/02/22 00:10:54;;;;;;;0.10;0.10;;;;;22.50;100503.00;;;;5017862;28;20041;-78
2022/02/22 00:13:25;;;;;;;0.05;0.05;;;;;22.50;100504.00;;;;5018282;28;20045;-77
2022/02/22 00:15:59;;;;;;;0.47;0.30;;;;;22.50;100500.00;;;;5020216;28;20421;-77
2022/02/22 00:18:28;;;;;;;0.00;0.00;;;;;22.40;100503.00;;;;5019850;28;20528;-77
2022/02/22 00:20:58;;;;;;;0.00;0.00;;;;;22.40;100511.00;;;;5018172;28;20683;-77
2022/02/22 00:23:27;;;;;;;0.00;0.00;;;;;22.40;100510.00;;;;5015766;28;20058;-77
2022/02/22 00:25:57;;;;;;;0.00;0.00;;;;;22.40;100524.00;;;;5016338;28;20043;-76
2022/02/22 00:28:27;;;;;;;0.30;0.30;;;;;22.40;100524.00;;;;5017757;28;20504;-77
2022/02/22 00:30:56;;;;;;;0.38;0.38;;;;;22.40;100540.00;;;;5001530;28;20500;-77
2022/02/22 00:33:28;;;;;;;0.05;0.05;;;;;22.40;100527.00;;;;5015251;28;20436;-79
2022/02/22 00:35:58;;;;;;;0.00;0.00;;;;;22.40;100530.00;;;;5009149;28;20052;-79
2022/02/22 00:38:28;;;;;;;0.10;0.10;;;;;22.30;100545.00;;;;5014720;28;20449;-79
2022/02/22 00:40:58;;;;;;;0.00;0.00;;;;;22.30;100553.00;;;;5015490;28;20551;-77
2022/02/22 00:43:27;;;;;;;0.38;0.38;;;;;22.20;100531.00;;;;5018482;28;20045;-79
2022/02/22 00:45:57;;;;;;;0.00;0.00;;;;;22.20;100526.00;;;;5017809;28;20041;-77
2022/02/22 00:48:26;;;;;;;0.90;0.43;;;;;22.20;100527.00;;;;5015980;28;20784;-79
2022/02/22 00:50:56;;;;;;;0.38;0.35;;;;;22.30;100536.00;;;;5017057;28;20049;-78
2022/02/22 00:53:25;;;;;;;0.00;0.00;;;;;22.30;100527.00;;;;5030871;28;20524;-77
2022/02/22 00:55:55;;;;;;;0.05;0.05;;;;;22.30;100526.00;;;;5014841;28;20100;-78
2022/02/22 00:58:24;;;;;;;0.00;0.00;;;;;22.30;100537.00;;;;5030676;28;20061;-81
2022/02/22 01:00:55;;;;;;;0.85;0.52;;;;;22.20;100541.00;;;;5022727;28;20057;-79
2022/02/22 01:03:29;;;;;;;0.00;0.00;;;;;22.20;100521.00;;;;5000002;28;20123;-78
2022/02/22 01:05:58;;;;;;;0.00;0.00;;;;;22.20;100526.00;;;;5017409;28;20580;-78
2022/02/22 01:08:27;;;;;;;0.00;0.00;;;;;22.20;100519.00;;;;5023208;28;20115;-78
2022/02/22 01:10:58;;;;;;;0.23;0.23;;;;;22.10;100533.00;;;;5019379;28;20135;-77
2022/02/22 01:13:27;;;;;;;0.00;0.00;;;;;22.10;100541.00;;;;5019188;28;20056;-77
2022/02/22 01:16:00;;;;;;;0.00;0.00;;;;;22.10;100545.00;;;;5022091;28;20524;-78
2022/02/22 01:18:29;;;;;;;0.00;0.00;;;;;22.10;100528.00;;;;5026381;28;20049;-77
2022/02/22 01:21:01;;;;;;;0.00;0.00;;;;;22.10;100545.00;;;;5024625;28;20144;-77
2022/02/22 01:23:30;;;;;;;0.00;0.00;;;;;22.20;100552.00;;;;5030192;28;20049;-76
2022/02/22 01:26:03;;;;;;;0.00;0.00;;;;;22.30;100561.00;;;;5040563;28;20101;-78
2022/02/22 01:28:32;;;;;;;0.00;0.00;;;;;22.30;100552.00;;;;5040538;28;20046;-77
2022/02/22 01:31:04;;;;;;;0.00;0.00;;;;;22.30;100556.00;;;;5040396;28;20053;-79
2022/02/22 01:33:33;;;;;;;0.38;0.30;;;;;22.30;100540.00;;;;5049149;28;20033;-79
2022/02/22 01:36:05;;;;;;;0.00;0.00;;;;;22.20;100532.00;;;;5065570;28;20052;-80
2022/02/22 01:38:35;;;;;;;0.55;0.55;;;;;22.20;100534.00;;;;5044477;28;20061;-80
2022/02/22 01:41:07;;;;;;;0.00;0.00;;;;;22.10;100536.00;;;;5030779;28;20140;-78
2022/02/22 01:43:40;;;;;;;0.08;0.08;;;;;22.20;100546.00;;;;5032790;28;20046;-78
2022/02/22 01:46:10;;;;;;;0.00;0.00;;;;;22.20;100513.00;;;;5027796;28;20053;-77
2022/02/22 01:48:40;;;;;;;0.10;0.00;;;;;22.20;100554.00;;;;5030623;28;20056;-76
2022/02/22 01:51:10;;;;;;;0.00;0.00;;;;;22.20;100550.00;;;;5027488;28;20071;-79
2022/02/22 01:53:40;;;;;;;0.75;0.75;;;;;22.20;100548.00;;;;5026644;28;20060;-81
2022/02/22 01:56:12;;;;;;;0.00;0.00;;;;;22.20;100541.00;;;;5026202;28;20464;-77
2022/02/22 01:58:43;;;;;;;0.73;0.65;;;;;22.20;100532.00;;;;5026548;28;20488;-78
2022/02/22 02:01:14;;;;;;;0.10;0.10;;;;;22.20;100547.00;;;;5009636;28;20049;-79
2022/02/22 02:03:45;;;;;;;0.00;0.00;;;;;22.20;100531.00;;;;5025947;28;20060;-78
2022/02/22 02:06:16;;;;;;;;;;;;;22.20;100540.00;;;;5025100;28;20475;-78
2022/02/22 02:08:46;;;;;;;0.65;0.38;;;;;22.20;100543.00;;;;5025947;28;19921;-78
2022/02/22 02:11:16;;;;;;;0.30;0.30;;;;;22.30;100541.00;;;;5025334;28;20068;-78
2022/02/22 02:13:45;;;;;;;1.55;0.57;;;;;22.30;100531.00;;;;5026377;28;20504;-78
2022/02/22 02:16:16;;;;;;;0.10;0.10;;;;;22.30;100539.00;;;;5027136;28;20128;-77
2022/02/22 02:18:49;;;;;;;0.00;0.00;;;;;22.30;100537.00;;;;5025965;28;20118;-77
2022/02/22 02:21:19;;;;;;;0.00;0.00;;;;;22.40;100538.00;;;;5026097;28;20049;-77
2022/02/22 02:23:49;;;;;;;0.20;0.20;;;;;22.30;100542.00;;;;5026146;28;20049;-77
2022/02/22 02:26:19;;;;;;;0.20;0.20;;;;;22.30;100541.00;;;;5027665;28;20041;-77
2022/02/22 02:28:49;;;;;;;0.00;0.00;;;;;22.40;100534.00;;;;5029891;28;20049;-77
2022/02/22 02:31:19;;;;;;;0.00;0.00;;;;;22.40;100523.00;;;;5029643;28;20045;-77
2022/02/22 02:33:49;;;;;;;0.00;0.00;;;;;22.40;100536.00;;;;5029317;28;20045;-78
2022/02/22 02:36:18;;;;;;;0.00;0.00;;;;;22.50;100522.00;;;;5029755;28;20045;-77
2022/02/22 02:38:47;;;;;;;0.10;0.10;;;;;22.50;100537.00;;;;5030262;28;20072;-78
2022/02/22 02:41:17;;;;;;;0.00;0.00;;;;;22.50;100536.00;;;;5029262;28;20048;-78
2022/02/22 02:43:46;;;;;;;0.00;0.00;;;;;22.50;100528.00;;;;5030161;28;20061;-77
2022/02/22 02:46:15;;;;;;;0.00;0.00;;;;;22.50;100532.00;;;;5028786;28;20132;-77
2022/02/22 02:48:45;;;;;;;0.00;0.00;;;;;22.40;100527.00;;;;5029072;28;20048;-78
2022/02/22 02:51:14;;;;;;;0.00;0.00;;;;;22.40;100532.00;;;;5028849;28;20041;-78
2022/02/22 02:53:44;;;;;;;0.47;0.45;;;;;22.40;100520.00;;;;5027533;28;20060;-78
2022/02/22 02:56:13;;;;;;;0.00;0.00;;;;;22.40;100523.00;;;;5029295;28;20131;-77
2022/02/22 02:58:42;;;;;;;0.00;0.00;;;;;22.40;100514.00;;;;5029057;28;20048;-78
2022/02/22 03:01:12;;;;;;;0.00;0.00;;;;;22.30;100517.00;;;;5027993;28;20100;-78
2022/02/22 03:03:41;;;;;;;0.00;0.00;;;;;22.30;100513.00;;;;5028744;28;20131;-77
2022/02/22 03:06:11;;;;;;;0.00;0.00;;;;;22.30;100525.00;;;;5028819;28;20444;-77
2022/02/22 03:08:40;;;;;;;0.00;0.00;;;;;22.30;100497.00;;;;5028667;28;20049;-77
2022/02/22 03:11:10;;;;;;;0.00;0.00;;;;;22.30;100499.00;;;;5028926;28;20531;-77
2022/02/22 03:13:40;;;;;;;0.00;0.00;;;;;22.30;100502.00;;;;5027721;28;20088;-77
2022/02/22 03:16:09;;;;;;;0.00;0.00;;;;;22.20;100504.00;;;;5027763;28;20459;-78
2022/02/22 03:18:40;;;;;;;0.00;0.00;;;;;22.20;100478.00;;;;5028690;28;20056;-77
2022/02/22 03:21:09;;;;;;;0.00;0.00;;;;;22.10;100485.00;;;;5028820;28;20052;-77
2022/02/22 03:23:39;;;;;;;0.00;0.00;;;;;22.10;100487.00;;;;5028532;28;20045;-77
2022/02/22 03:26:09;;;;;;;0.00;0.00;;;;;22.20;100488.00;;;;5027406;28;20615;-79
2022/02/22 03:28:38;;;;;;;0.00;0.00;;;;;22.30;100485.00;;;;5028311;28;20053;-77
2022/02/22 03:31:08;;;;;;;0.55;0.55;;;;;22.20;100480.00;;;;5026899;28;20523;-76
2022/02/22 03:33:37;;;;;;;0.00;0.00;;;;;22.20;100501.00;;;;5029017;28;20081;-78
2022/02/22 03:36:07;;;;;;;0.00;0.00;;;;;22.20;100475.00;;;;5027098;28;20057;-78
2022/02/22 03:38:37;;;;;;;0.00;0.00;;;;;22.10;100483.00;;;;5027317;28;20051;-76
2022/02/22 03:41:08;;;;;;;0.00;0.00;;;;;22.10;100498.00;;;;5027885;28;20095;-78
2022/02/22 03:43:39;;;;;;;0.00;0.00;;;;;22.10;100483.00;;;;5028302;28;20069;-78
2022/02/22 03:46:08;;;;;;;0.00;0.00;;;;;22.10;100489.00;;;;5028299;28;20045;-78
2022/02/22 03:48:40;;;;;;;0.00;0.00;;;;;22.10;100481.00;;;;5026938;28;20061;-78
2022/02/22 03:51:10;;;;;;;0.00;0.00;;;;;22.10;100486.00;;;;5027951;28;20103;-78
2022/02/22 03:53:42;;;;;;;0.00;0.00;;;;;22.10;100505.00;;;;5028231;28;20116;-78
2022/02/22 03:56:12;;;;;;;0.00;0.00;;;;;22.00;100492.00;;;;5026480;28;20045;-78
2022/02/22 03:58:44;;;;;;;0.00;0.00;;;;;22.00;100483.00;;;;5042965;28;20045;-78
2022/02/22 04:01:13;;;;;;;0.00;0.00;;;;;22.00;100497.00;;;;5027374;28;20057;-77
2022/02/22 04:03:44;;;;;;;0.00;0.00;;;;;22.00;100494.00;;;;5027828;28;20054;-77
2022/02/22 04:06:13;;;;;;;0.00;0.00;;;;;22.00;100494.00;;;;5027862;28;20053;-77
2022/02/22 04:08:46;;;;;;;0.00;0.00;;;;;22.00;100494.00;;;;5027755;28;20046;-77
2022/02/22 04:11:16;;;;;;;0.00;0.00;;;;;22.00;100479.00;;;;5028038;28;20045;-77
2022/02/22 04:13:47;;;;;;;0.00;0.00;;;;;22.00;100480.00;;;;5027174;28;20530;-77
2022/02/22 04:16:17;;;;;;;0.00;0.00;;;;;22.00;100485.00;;;;5027589;28;20092;-77
2022/02/22 04:18:47;;;;;;;0.00;0.00;;;;;22.00;100474.00;;;;5042261;28;20071;-77
2022/02/22 04:21:16;;;;;;;0.00;0.00;;;;;22.00;100464.00;;;;5027707;28;20045;-77
2022/02/22 04:23:46;;;;;;;0.00;0.00;;;;;22.00;100481.00;;;;5027591;28;20041;-77
2022/02/22 04:26:15;;;;;;;0.00;0.00;;;;;22.00;100472.00;;;;5026887;28;20041;-77
2022/02/22 04:28:45;;;;;;;0.00;0.00;;;;;22.00;100462.00;;;;5027272;28;20053;-77
2022/02/22 04:31:14;;;;;;;0.00;0.00;;;;;22.00;100466.00;;;;5010121;28;20057;-77
2022/02/22 04:33:44;;;;;;;0.00;0.00;;;;;22.00;100445.00;;;;5027195;28;20050;-77
2022/02/22 04:36:13;;;;;;;0.00;0.00;;;;;22.00;100450.00;;;;5027277;28;20060;-77
2022/02/22 04:38:42;;;;;;;0.00;0.00;;;;;22.00;100426.00;;;;5026792;28;20467;-77
2022/02/22 04:41:12;;;;;;;0.00;0.00;;;;;22.00;100439.00;;;;5027084;28;20599;-77
2022/02/22 04:43:42;;;;;;;0.00;0.00;;;;;21.90;100442.00;;;;5027536;28;20051;-77
2022/02/22 04:46:11;;;;;;;0.00;0.00;;;;;21.90;100438.00;;;;5027100;28;20095;-77
2022/02/22 04:48:41;;;;;;;0.00;0.00;;;;;21.90;100445.00;;;;5026849;28;20095;-77
2022/02/22 04:51:10;;;;;;;0.00;0.00;;;;;21.90;100428.00;;;;5026418;28;20064;-77
2022/02/22 04:53:40;;;;;;;0.00;0.00;;;;;21.90;100437.00;;;;5025549;28;20056;-78
2022/02/22 04:56:09;;;;;;;0.00;0.00;;;;;21.90;100440.00;;;;5026827;28;20068;-77
2022/02/22 04:58:38;;;;;;;0.00;0.00;;;;;21.90;100431.00;;;;5010016;28;20053;-77
2022/02/22 05:01:08;;;;;;;0.00;0.00;;;;;21.90;100424.00;;;;5041881;28;20041;-77
2022/02/22 05:03:38;;;;;;;0.00;0.00;;;;;21.90;100432.00;;;;5026599;28;20037;-77
2022/02/22 05:06:07;;;;;;;0.00;0.00;;;;;21.90;100412.00;;;;5025245;28;20053;-77
2022/02/22 05:08:37;;;;;;;0.00;0.00;;;;;21.90;100395.00;;;;5026713;28;20514;-77
2022/02/22 05:11:07;;;;;;;0.00;0.00;;;;;21.90;100407.00;;;;5027172;28;20045;-77
2022/02/22 05:13:37;;;;;;;0.00;0.00;;;;;21.80;100391.00;;;;5026899;28;20041;-77
2022/02/22 05:16:07;;;;;;;0.00;0.00;;;;;21.80;100395.00;;;;5026017;28;20053;-77
2022/02/22 05:18:37;;;;;;;0.00;0.00;;;;;21.80;100384.00;;;;5026886;28;20428;-77
2022/02/22 05:21:07;;;;;;;0.00;0.00;;;;;21.80;100379.00;;;;5025920;28;20060;-77
2022/02/22 05:23:37;;;;;;;0.00;0.00;;;;;21.70;100372.00;;;;5041303;28;20046;-77
2022/02/22 05:26:11;;;;;;;0.00;0.00;;;;;21.70;100386.00;;;;5026085;28;20037;-77
2022/02/22 05:28:44;;;;;;;0.00;0.00;;;;;21.70;100375.00;;;;5026003;28;20120;-77
2022/02/22 05:31:16;;;;;;;0.00;0.00;;;;;21.70;100390.00;;;;5026997;28;20153;-77
2022/02/22 05:33:46;;;;;;;0.00;0.00;;;;;21.70;100378.00;;;;5027369;28;20056;-77
2022/02/22 05:36:18;;;;;;;0.00;0.00;;;;;21.70;100363.00;;;;5026324;28;20574;-77
2022/02/22 05:38:48;;;;;;;0.00;0.00;;;;;21.70;100383.00;;;;5026529;28;20037;-77
2022/02/22 05:41:18;;;;;;;0.00;0.00;;;;;21.60;100370.00;;;;5024959;28;20514;-77
2022/02/22 05:43:49;;;;;;;0.00;0.00;;;;;21.60;100380.00;;;;5026428;28;20057;-77
2022/02/22 05:46:19;;;;;;;0.00;0.00;;;;;21.60;100382.00;;;;5025202;28;20080;-77
2022/02/22 05:48:48;;;;;;;0.00;0.00;;;;;21.60;100371.00;;;;5024896;28;20140;-77
2022/02/22 05:51:18;;;;;;;0.00;0.00;;;;;21.60;100363.00;;;;5024763;28;20487;-77
2022/02/22 05:53:48;;;;;;;0.00;0.00;;;;;21.50;100380.00;;;;5025579;28;20053;-77
2022/02/22 05:56:19;;;;;;;0.00;0.00;;;;;21.50;100360.00;;;;5025867;28;20458;-77
2022/02/22 05:58:48;;;;;;;0.00;0.00;;;;;21.50;100358.00;;;;5027048;28;20099;-77
2022/02/22 06:01:18;;;;;;;0.00;0.00;;;;;21.50;100362.00;;;;5028840;28;20056;-77
2022/02/22 06:03:47;;;;;;;0.00;0.00;;;;;21.40;100366.00;;;;5029506;28;20042;-77
2022/02/22 06:06:17;;;;;;;0.00;0.00;;;;;21.50;100346.00;;;;5029726;28;20508;-77
2022/02/22 06:08:46;;;;;;;0.00;0.00;;;;;21.40;100378.00;;;;5030327;28;20048;-77
2022/02/22 06:11:18;;;;;;;0.00;0.00;;;;;21.40;100367.00;;;;5029528;28;20045;-77
2022/02/22 06:13:51;;;;;;;0.00;0.00;;;;;21.40;100370.00;;;;5029731;28;20046;-77
2022/02/22 06:16:20;;;;;;;0.00;0.00;;;;;21.40;100382.00;;;;5029413;28;20038;-77
2022/02/22 06:18:50;;;;;;;0.00;0.00;;;;;21.40;100371.00;;;;5029676;28;20049;-78
2022/02/22 06:21:21;;;;;;;;;;;;;21.40;100378.00;;;;5031277;28;20056;-77
2022/02/22 06:23:50;;;;;;;0.00;0.00;;;;;21.40;100361.00;;;;5028227;28;19925;-78
2022/02/22 06:26:22;;;;;;;0.00;0.00;;;;;21.40;100372.00;;;;5030094;28;20489;-77
2022/02/22 06:28:52;;;;;;;0.00;0.00;;;;;21.40;100360.00;;;;5029655;28;20496;-77
2022/02/22 06:31:24;;;;;;;0.00;0.00;;;;;21.40;100367.00;;;;5029060;28;20531;-77
2022/02/22 06:33:53;;;;;;;0.00;0.00;;;;;21.40;100364.00;;;;5044327;28;20508;-77
2022/02/22 06:36:25;;;;;;;0.00;0.00;;;;;21.40;100360.00;;;;5029550;28;20056;-77
2022/02/22 06:38:55;;;;;;;0.00;0.00;;;;;21.40;100365.00;;;;5029375;28;20447;-77
2022/02/22 06:41:28;;;;;;;0.00;0.00;;;;;21.30;100362.00;;;;5029603;28;20054;-77
2022/02/22 06:43:57;;;;;;;0.00;0.00;;;;;21.30;100386.00;;;;5028336;28;20049;-77
2022/02/22 06:46:28;;;;;;;;;;;;;21.20;100387.00;;;;5030061;28;20515;-77
2022/02/22 06:48:58;;;;;;;0.00;0.00;;;;;21.20;100380.00;;;;5028078;28;20387;-77
2022/02/22 06:51:29;;;;;;;0.00;0.00;;;;;21.20;100382.00;;;;5027740;28;20076;-77
2022/02/22 06:53:59;;;;;;;0.00;0.00;;;;;21.20;100374.00;;;;5028901;28;20467;-77
2022/02/22 06:56:31;;;;;;;0.00;0.00;;;;;21.20;100374.00;;;;5029524;28;20052;-77
2022/02/22 06:59:00;;;;;;;0.00;0.00;;;;;21.10;100369.00;;;;5027757;28;20052;-77
2022/02/22 07:01:32;;;;;;;0.00;0.00;;;;;21.20;100394.00;;;;5029663;28;20037;-77
2022/02/22 07:04:02;;;;;;;0.00;0.00;;;;;21.20;100382.00;;;;5028581;28;20083;-78
2022/02/22 07:06:34;;;;;;;0.00;0.00;;;;;21.20;100398.00;;;;5029119;28;20511;-77
2022/02/22 07:09:03;;;;;;;0.00;0.00;;;;;21.10;100367.00;;;;5029255;28;20447;-77
2022/02/22 07:11:34;;;;;;;;;;;;;21.10;100378.00;;;;5029167;28;20068;-77
2022/02/22 07:14:03;;;;;;;0.00;0.00;;;;;21.10;100375.00;;;;5028575;28;19982;-77
2022/02/22 07:16:33;;;;;;;0.00;0.00;;;;;21.10;100394.00;;;;5028026;28;20049;-78
2022/02/22 07:19:03;;;;;;;0.00;0.00;;;;;21.10;100367.00;;;;5028202;28;20488;-77
2022/02/22 07:21:33;;;;;;;0.00;0.00;;;;;21.10;100384.00;;;;5028791;28;20048;-77
2022/02/22 07:24:03;;;;;;;0.10;0.10;;;;;21.10;100380.00;;;;5028642;28;20045;-77
2022/02/22 07:26:33;;;;;;;0.00;0.00;;;;;21.10;100369.00;;;;5028675;28;20111;-77
2022/02/22 07:29:03;;;;;;;0.00;0.00;;;;;21.00;100377.00;;;;5027290;28;20045;-77
2022/02/22 07:31:34;;;;;;;0.00;0.00;;;;;21.10;100379.00;;;;5028954;28;20045;-77
2022/02/22 07:34:03;;;;;;;0.10;0.10;;;;;21.00;100391.00;;;;5028616;28;20544;-77
2022/02/22 07:36:32;;;;;;;0.00;0.00;;;;;21.00;100366.00;;;;5028717;28;20049;-77
2022/02/22 07:39:02;;;;;;;0.00;0.00;;;;;21.10;100367.00;;;;5027168;28;20508;-77
2022/02/22 07:41:32;;;;;;;0.00;0.00;;;;;21.10;100369.00;;;;5028169;28;20038;-77
2022/02/22 07:44:02;;;;;;;0.00;0.00;;;;;21.00;100374.00;;;;5027845;28;20049;-77
2022/02/22 07:46:31;;;;;;;0.00;0.00;;;;;21.00;100372.00;;;;5043546;28;20055;-77
2022/02/22 07:49:00;;;;;;;0.00;0.00;;;;;21.10;100380.00;;;;5028162;28;20115;-77
2022/02/22 07:51:30;;;;;;;0.00;0.00;;;;;21.10;100373.00;;;;5027075;28;20045;-77
2022/02/22 07:54:00;;;;;;;0.00;0.00;;;;;21.00;100386.00;;;;5028161;28;20064;-77
2022/02/22 07:56:31;;;;;;;0.00;0.00;;;;;20.90;100396.00;;;;5028159;28;20042;-77
2022/02/22 07:59:00;;;;;;;0.00;0.00;;;;;20.90;100381.00;;;;5027999;28;20523;-77
2022/02/22 08:01:30;;;;;;;0.00;0.00;;;;;20.90;100395.00;;;;5026486;28;20081;-77
2022/02/22 08:03:59;;;;;;;0.00;0.00;;;;;21.00;100395.00;;;;5027641;28;20049;-77
2022/02/22 08:06:29;;;;;;;0.00;0.00;;;;;21.00;100396.00;;;;5027820;28;20044;-77
2022/02/22 08:08:58;;;;;;;0.00;0.00;;;;;21.00;100413.00;;;;5027666;28;20397;-77
2022/02/22 08:11:31;;;;;;;0.00;0.00;;;;;21.10;100412.00;;;;5027979;28;20040;-77
2022/02/22 08:14:01;;;;;;;0.00;0.00;;;;;21.10;100433.00;;;;5027510;28;20531;-77
2022/02/22 08:16:30;;;;;;;0.00;0.00;;;;;21.10;100436.00;;;;5027917;28;20092;-77
2022/02/22 08:19:01;;;;;;;0.00;0.00;;;;;21.10;100427.00;;;;5026123;28;20161;-78
2022/02/22 08:21:30;;;;;;;0.00;0.00;;;;;21.00;100416.00;;;;5027683;28;20042;-78
2022/02/22 08:24:00;;;;;;;0.00;0.00;;;;;21.00;100423.00;;;;5026689;28;20308;-78
2022/02/22 08:26:37;;;;;;;0.00;0.00;;;;;20.90;100434.00;;;;5027343;28;20037;-78
2022/02/22 08:29:07;;;;;;;0.00;0.00;;;;;20.90;100438.00;;;;5027167;28;20044;-78
2022/02/22 08:31:36;;;;;;;0.00;0.00;;;;;20.90;100442.00;;;;5027735;28;20095;-78
2022/02/22 08:34:11;;;;;;;0.00;0.00;;;;;20.90;100442.00;;;;5025600;28;20046;-78
2022/02/22 08:36:41;;;;;;;0.00;0.00;;;;;20.80;100435.00;;;;5027050;28;20500;-78
2022/02/22 08:39:10;;;;;;;0.00;0.00;;;;;20.80;100432.00;;;;5027006;28;20412;-78
2022/02/22 08:41:40;;;;;;;0.00;0.00;;;;;20.80;100451.00;;;;5027954;28;20133;-78
2022/02/22 08:44:10;;;;;;;0.00;0.00;;;;;20.80;100443.00;;;;5027427;28;20052;-78
2022/02/22 08:46:40;;;;;;;0.00;0.00;;;;;20.80;100436.00;;;;5026512;28;20042;-78
2022/02/22 08:49:10;;;;;;;0.00;0.00;;;;;20.80;100456.00;;;;5027148;28;20333;-78
2022/02/22 08:51:39;;;;;;;0.00;0.00;;;;;20.80;100440.00;;;;5027194;28;20060;-78
2022/02/22 08:54:09;;;;;;;0.00;0.00;;;;;20.70;100438.00;;;;5026739;28;20436;-78
2022/02/22 08:56:39;;;;;;;0.00;0.00;;;;;20.70;100445.00;;;;5027651;28;20148;-78
2022/02/22 08:59:09;;;;;;;0.00;0.00;;;;;20.70;100460.00;;;;5025383;28;20053;-78
2022/02/22 09:01:39;;;;;;;0.00;0.00;;;;;20.70;100460.00;;;;5025786;28;20715;-78
2022/02/22 09:04:09;;;;;;;0.00;0.00;;;;;20.80;100470.00;;;;5041248;28;20056;-78
2022/02/22 09:06:38;;;;;;;0.00;0.00;;;;;20.80;100477.00;;;;5026030;28;20041;-77
2022/02/22 09:09:08;;;;;;;0.00;0.00;;;;;20.70;100471.00;;;;5023264;28;20127;-78
2022/02/22 09:11:37;;;;;;;0.00;0.00;;;;;20.70;100481.00;;;;5037640;28;20045;-78
2022/02/22 09:14:07;;;;;;;0.00;0.00;;;;;20.60;100465.00;;;;5023578;28;20519;-78
2022/02/22 09:16:36;;;;;;;0.00;0.00;;;;;20.70;100457.00;;;;5026541;28;20133;-80
2022/02/22 09:19:06;;;;;;;0.00;0.00;;;;;20.70;100462.00;;;;5026401;28;20514;-77
2022/02/22 09:21:36;;;;;;;0.00;0.00;;;;;20.70;100475.00;;;;5026480;28;20068;-76
2022/02/22 09:24:09;;;;;;;0.00;0.00;;;;;20.70;100498.00;;;;5040304;28;20508;-77
2022/02/22 09:26:39;;;;;;;0.00;0.00;;;;;20.80;100480.00;;;;5026595;28;20045;-76
2022/02/22 09:29:09;;;;;;;0.00;0.00;;;;;20.80;100487.00;;;;5026516;28;20076;-77
2022/02/22 09:31:38;;;;;;;0.00;0.00;;;;;20.80;100495.00;;;;5026192;28;20045;-77
2022/02/22 09:34:10;;;;;;;0.00;0.00;;;;;20.90;100505.00;;;;5025165;28;20139;-77
2022/02/22 09:36:39;;;;;;;0.30;0.30;;;;;21.00;100506.00;;;;5030626;28;20045;-77
2022/02/22 09:39:11;;;;;;;0.00;0.00;;;;;21.10;100527.00;;;;5029247;28;20053;-75
2022/02/22 09:41:45;;;;;;;0.00;0.00;;;;;21.20;100521.00;;;;5030713;28;20402;-77
2022/02/22 09:44:15;;;;;;;0.00;0.00;;;;;21.30;100530.00;;;;5028462;28;20049;-77
2022/02/22 09:46:45;;;;;;;0.00;0.00;;;;;21.40;100511.00;;;;5030528;28;20375;-77
2022/02/22 09:49:15;;;;;;;0.00;0.00;;;;;21.50;100510.00;;;;5030517;28;20071;-78
2022/02/22 09:51:47;;;;;;;0.00;0.00;;;;;21.60;100511.00;;;;5029966;28;20084;-78
2022/02/22 09:54:17;;;;;;;0.00;0.00;;;;;21.70;100505.00;;;;5030170;28;20042;-76
2022/02/22 09:56:47;;;;;;;0.00;0.00;;;;;21.90;100523.00;;;;5029957;28;20056;-77
2022/02/22 09:59:21;;;;;;;0.00;0.00;;;;;22.00;100520.00;;;;5028877;28;20099;-77
2022/02/22 10:01:53;;;;;;;0.00;0.00;;;;;22.10;100527.00;;;;5029240;28;20909;-77
2022/02/22 10:04:25;;;;;;;0.00;0.00;;;;;22.30;100509.00;;;;5030202;28;20045;-77
2022/02/22 10:07:03;;;;;;;0.00;0.00;;;;;22.50;100521.00;;;;5029982;28;20038;-77
2022/02/22 10:09:33;;;;;;;0.00;0.00;;;;;22.50;100534.00;;;;5028802;28;20452;-77
2022/02/22 10:12:03;;;;;;;0.00;0.00;;;;;22.50;100528.00;;;;5029013;28;20574;-77
2022/02/22 10:14:38;;;;;;;0.00;0.00;;;;;22.50;100537.00;;;;5029881;28;20053;-77
2022/02/22 10:17:08;;;;;;;0.00;0.00;;;;;22.50;100526.00;;;;5029796;28;20045;-77
2022/02/22 10:19:38;;;;;;;0.00;0.00;;;;;23.30;100528.00;;;;5027935;28;20085;-78
2022/02/22 10:22:09;;;;;;;0.00;0.00;;;;;22.80;100563.00;;;;5029770;28;20095;-78
2022/02/22 10:24:38;;;;;;;;;;;;;22.80;100554.00;;;;5029096;28;20089;-78
2022/02/22 10:27:09;;;;;;;0.00;0.00;;;;;24.20;100412.00;;;;5029969;28;20024;-78
2022/02/22 10:29:38;;;;;;;0.82;0.52;;;;;25.60;100463.00;;;;5029383;28;20046;-77
2022/02/22 10:32:16;;;;;;;0.00;0.00;;;;;27.90;100385.00;;;;5028195;28;20096;-79
2022/02/22 10:34:49;;;;;;;0.00;0.00;;;;;29.70;100442.00;;;;5029684;28;20400;-78
2022/02/22 10:37:19;;;;;;;0.52;0.52;;;;;28.70;100499.00;;;;5029548;28;20512;-78
2022/02/22 10:39:49;;;;;;;0.00;0.00;;;;;27.70;100488.00;;;;5029105;28;20077;-79
2022/02/22 10:42:18;;;;;;;0.22;0.22;;;;;27.70;100464.00;;;;5027680;28;20081;-78
2022/02/22 10:44:48;;;;;;;0.10;0.10;;;;;31.50;100410.00;;;;5044239;28;20746;-78
2022/02/22 10:47:20;;;;;;;0.00;0.00;;;;;30.00;100523.00;;;;5029152;28;20038;-78
2022/02/22 10:49:50;;;;;;;1.27;0.60;;;;;29.80;100530.00;;;;5029486;28;21416;-77
2022/02/22 10:52:30;;;;;;;0.00;0.00;;;;;28.80;100527.00;;;;5028091;28;20526;-77
2022/02/22 10:55:02;;;;;;;0.00;0.00;;;;;31.00;100391.00;;;;5028184;28;20056;-78
2022/02/22 10:57:32;;;;;;;0.00;0.00;;;;;32.60;100400.00;;;;5026858;28;20049;-78
2022/02/22 11:00:04;;;;;;;0.00;0.00;;;;;32.80;100481.00;;;;5028600;28;20038;-78
2022/02/22 11:02:34;;;;;;;0.00;0.00;;;;;33.60;100396.00;;;;5028433;28;20124;-78
2022/02/22 11:05:24;;;;;;;0.00;0.00;;;;;33.40;100378.00;;;;5041362;28;20057;-77
2022/02/22 11:07:54;;;;;;;0.45;0.28;;;;;33.80;100382.00;;;;5028752;28;20041;-78
2022/02/22 11:10:31;;;;;;;0.00;0.00;;;;;33.40;100391.00;;;;5026800;28;20076;-78
2022/02/22 11:13:01;;;;;;;0.00;0.00;;;;;33.50;100391.00;;;;5029360;28;20128;-78
2022/02/22 11:15:39;;;;;;;0.00;0.00;;;;;33.90;100407.00;;;;5027518;28;20057;-78
2022/02/22 11:18:22;;;;;;;0.10;0.10;;;;;33.90;100414.00;;;;5028062;28;20049;-78
2022/02/22 11:20:53;;;;;;;0.00;0.00;;;;;34.10;100418.00;;;;5026026;28;20096;-77
2022/02/22 11:23:29;;;;;;;0.00;0.00;;;;;35.30;100417.00;;;;5027803;28;20508;-79
2022/02/22 11:26:20;;;;;;;0.00;0.00;;;;;34.50;100415.00;;;;5028093;28;20113;-78
2022/02/22 11:28:57;;;;;;;0.00;0.00;;;;;34.20;100481.00;;;;5027648;28;20045;-77
2022/02/22 11:31:31;;;;;;;0.13;0.13;;;;;34.70;100409.00;;;;5028385;28;20554;-78
2022/02/22 11:34:04;;;;;;;0.00;0.00;;;;;31.80;100570.00;;;;5028942;28;20046;-77
2022/02/22 11:36:39;;;;;;;0.00;0.00;;;;;31.90;100538.00;;;;5028624;28;20042;-78
2022/02/22 11:39:21;;;;;;;0.00;0.00;;;;;34.10;100420.00;;;;5027980;28;20528;-78
2022/02/22 11:41:50;;;;;;;0.00;0.00;;;;;34.80;100419.00;;;;5027314;28;20073;-78
2022/02/22 11:44:23;;;;;;;0.32;0.10;;;;;34.60;100417.00;;;;5027504;28;20045;-78
2022/02/22 11:46:56;;;;;;;0.00;0.00;;;;;35.30;100425.00;;;;5020910;28;20103;-76
2022/02/22 11:49:32;;;;;;;0.08;0.08;;;;;35.30;100532.00;;;;5024682;28;20926;-77
2022/02/22 11:52:08;;;;;;;0.00;0.00;;;;;34.80;100474.00;;;;5027031;28;20095;-78
2022/02/22 11:54:38;;;;;;;0.05;0.05;;;;;33.80;100464.00;;;;5027591;28;20068;-78
2022/02/22 11:57:17;;;;;;;0.10;0.10;;;;;33.10;100431.00;;;;5027394;28;20839;-77
2022/02/22 12:00:01;;;;;;;;;;;;;35.00;100472.00;;;;5028363;28;20796;-78
2022/02/22 12:02:42;;;;;;;0.00;0.00;;;;;34.70;100565.00;;;;5041526;28;19921;-77
2022/02/22 12:05:29;;;;;;;0.52;0.52;;;;;31.40;100618.00;;;;5026543;28;20096;-78
2022/02/22 12:08:05;;;;;;;0.15;0.15;;;;;30.10;100611.00;;;;5028784;28;20112;-79
2022/02/22 12:10:45;;;;;;;0.08;0.08;;;;;29.40;100632.00;;;;5027918;28;20423;-79
2022/02/22 12:13:16;;;;;;;;;;;;;28.80;100641.00;;;;5047314;28;20055;-78
2022/02/22 12:15:47;;;;;;;0.00;0.00;;;;;28.60;100629.00;;;;5047740;28;19940;-77
2022/02/22 12:18:17;;;;;;;0.00;0.00;;;;;28.80;100590.00;;;;5048807;28;20060;-78
2022/02/22 12:20:49;;;;;;;0.47;0.32;;;;;29.20;100600.00;;;;5052367;28;20105;-77
2022/02/22 12:23:22;;;;;;;0.52;0.32;;;;;30.10;100574.00;;;;5050357;28;20056;-78
2022/02/22 12:25:55;;;;;;;0.00;0.00;;;;;31.90;100506.00;;;;5038232;28;20095;-78
2022/02/22 12:28:26;;;;;;;0.10;0.10;;;;;31.50;100589.00;;;;5027284;28;20528;-79